PWSweather.com
Personal Weather Stations
Station Observations
KCAOCEAN4
Jeffries Ranch, Oceanside, CA 92057

Jeffries RanchOceanside, CA 92057

Lat: 33.2463208, Lon: -117.25335080000002

Elevation: 207

Station Type: Davis Vantage Vue

jeffriesranchweather.com

High Low Average
Temperature 81.1°F27.3°C 50.7°F10.4°C 64.5°F18.1°C
Dew Point 50.9°F10.5°C 40.8°F4.9°C 46.2°F7.9°C
Winds 8.1 mph 13.0 kmh Calm Calm 2.0 mph SSE3.2 kmh SSE
Wind Gusts 15.0 mph24.1 kmh -- 5.0 mph8.0 kmh
Humidity 84% 24% 56%
Pressure 29.93 in1013.5 mb 29.83 in1010.2 mb -
Precipitation 0.00 in0.0 mm - -
Hour Temp Dew Point Humidity Winds Wind Gusts Pressure Precip Precip Rate Daily Precip Total
12:02 AM 57.6°F14.2°C 45.1°F7.3°C 63% 0.9 mph NE1.4 kmh NE 4.0 mph6.4 kmh 29.95 in1014.2 mb 0.00 in0.0 mm 0.00 in0.0 mm 0.00 in0.0 mm
12:12 AM 57.4°F14.1°C 45.3°F7.4°C 64% 0.9 mph NE1.4 kmh NE 2.9 mph4.7 kmh 29.94 in1013.9 mb 0.00 in0.0 mm 0.00 in0.0 mm 0.00 in0.0 mm
12:22 AM 57.2°F14.0°C 45.5°F7.5°C 65% 0.9 mph NE1.4 kmh NE 2.9 mph4.7 kmh 29.94 in1013.9 mb 0.00 in0.0 mm 0.00 in0.0 mm 0.00 in0.0 mm
12:32 AM 57.2°F14.0°C 45.9°F7.7°C 66% 2.0 mph ENE3.2 kmh ENE 6.0 mph9.7 kmh 29.94 in1013.9 mb 0.00 in0.0 mm 0.00 in0.0 mm 0.00 in0.0 mm
12:42 AM 57.0°F13.9°C 46.2°F7.9°C 67% 2.0 mph ENE3.2 kmh ENE 6.0 mph9.7 kmh 29.93 in1013.5 mb 0.00 in0.0 mm 0.00 in0.0 mm 0.00 in0.0 mm
12:52 AM 56.7°F13.7°C 46.2°F7.9°C 68% 2.9 mph E4.7 kmh E 6.0 mph9.7 kmh 29.93 in1013.5 mb 0.00 in0.0 mm 0.00 in0.0 mm 0.00 in0.0 mm
01:02 AM 56.7°F13.7°C 46.2°F7.9°C 68% 2.0 mph ENE3.2 kmh ENE 4.9 mph7.9 kmh 29.93 in1013.5 mb 0.00 in0.0 mm 0.00 in0.0 mm 0.00 in0.0 mm
01:12 AM 56.7°F13.7°C 45.9°F7.7°C 67% 2.0 mph NE3.2 kmh NE 6.0 mph9.7 kmh 29.93 in1013.5 mb 0.00 in0.0 mm 0.00 in0.0 mm 0.00 in0.0 mm
01:22 AM 56.5°F13.6°C 45.7°F7.6°C 67% 2.0 mph E3.2 kmh E 4.9 mph7.9 kmh 29.93 in1013.5 mb 0.00 in0.0 mm 0.00 in0.0 mm 0.00 in0.0 mm
01:32 AM 56.5°F13.6°C 46.0°F7.8°C 68% 2.0 mph E3.2 kmh E 4.0 mph6.4 kmh 29.92 in1013.2 mb 0.00 in0.0 mm 0.00 in0.0 mm 0.00 in0.0 mm
01:42 AM 56.3°F13.5°C 45.9°F7.7°C 68% 0.9 mph E1.4 kmh E 4.0 mph6.4 kmh 29.92 in1013.2 mb 0.00 in0.0 mm 0.00 in0.0 mm 0.00 in0.0 mm
01:52 AM 55.9°F13.3°C 45.9°F7.7°C 69% 0.9 mph ENE1.4 kmh ENE 4.0 mph6.4 kmh 29.92 in1013.2 mb 0.00 in0.0 mm 0.00 in0.0 mm 0.00 in0.0 mm
02:02 AM 56.1°F13.4°C 46.0°F7.8°C 69% 0.9 mph ENE1.4 kmh ENE 5.0 mph8.0 kmh 29.92 in1013.2 mb 0.00 in0.0 mm 0.00 in0.0 mm 0.00 in0.0 mm
02:12 AM 55.9°F13.3°C 45.9°F7.7°C 69% 2.0 mph ENE3.2 kmh ENE 7.0 mph11.3 kmh 29.92 in1013.2 mb 0.00 in0.0 mm 0.00 in0.0 mm 0.00 in0.0 mm
02:22 AM 55.9°F13.3°C 45.9°F7.7°C 69% 2.9 mph ENE4.7 kmh ENE 6.0 mph9.7 kmh 29.91 in1012.9 mb 0.00 in0.0 mm 0.00 in0.0 mm 0.00 in0.0 mm
02:32 AM 55.9°F13.3°C 45.9°F7.7°C 69% 2.0 mph ENE3.2 kmh ENE 4.9 mph7.9 kmh 29.91 in1012.9 mb 0.00 in0.0 mm 0.00 in0.0 mm 0.00 in0.0 mm
02:42 AM 55.8°F13.2°C 46.0°F7.8°C 70% 0.9 mph ENE1.4 kmh ENE 4.9 mph7.9 kmh 29.91 in1012.9 mb 0.00 in0.0 mm 0.00 in0.0 mm 0.00 in0.0 mm
02:52 AM 55.4°F13.0°C 45.9°F7.7°C 70% 2.9 mph NE4.7 kmh NE 8.1 mph13.0 kmh 29.91 in1012.9 mb 0.00 in0.0 mm 0.00 in0.0 mm 0.00 in0.0 mm
03:02 AM 55.6°F13.1°C 46.0°F7.8°C 70% 2.0 mph ENE3.2 kmh ENE 6.9 mph11.1 kmh 29.90 in1012.5 mb 0.00 in0.0 mm 0.00 in0.0 mm 0.00 in0.0 mm
03:12 AM 55.6°F13.1°C 46.0°F7.8°C 70% 2.0 mph NE3.2 kmh NE 7.0 mph11.3 kmh 29.90 in1012.5 mb 0.00 in0.0 mm 0.00 in0.0 mm 0.00 in0.0 mm
03:22 AM 55.0°F12.8°C 45.9°F7.7°C 71% 2.0 mph E3.2 kmh E 4.9 mph7.9 kmh 29.90 in1012.5 mb 0.00 in0.0 mm 0.00 in0.0 mm 0.00 in0.0 mm
03:32 AM 54.9°F12.7°C 46.0°F7.8°C 72% 0.9 mph E1.4 kmh E 4.0 mph6.4 kmh 29.90 in1012.5 mb 0.00 in0.0 mm 0.00 in0.0 mm 0.00 in0.0 mm
03:42 AM 54.9°F12.7°C 46.0°F7.8°C 72% 0.9 mph E1.4 kmh E 4.0 mph6.4 kmh 29.90 in1012.5 mb 0.00 in0.0 mm 0.00 in0.0 mm 0.00 in0.0 mm
03:52 AM 55.0°F12.8°C 45.9°F7.7°C 71% 2.0 mph NNE3.2 kmh NNE 7.0 mph11.3 kmh 29.89 in1012.2 mb 0.00 in0.0 mm 0.00 in0.0 mm 0.00 in0.0 mm
04:02 AM 55.2°F12.9°C 45.1°F7.3°C 69% 2.9 mph NE4.7 kmh NE 6.0 mph9.7 kmh 29.90 in1012.5 mb 0.00 in0.0 mm 0.00 in0.0 mm 0.00 in0.0 mm
04:12 AM 55.2°F12.9°C 45.7°F7.6°C 70% 2.0 mph ENE3.2 kmh ENE 6.0 mph9.7 kmh 29.89 in1012.2 mb 0.00 in0.0 mm 0.00 in0.0 mm 0.00 in0.0 mm
04:22 AM 55.0°F12.8°C 45.5°F7.5°C 70% 0.9 mph ENE1.4 kmh ENE 6.0 mph9.7 kmh 29.89 in1012.2 mb 0.00 in0.0 mm 0.00 in0.0 mm 0.00 in0.0 mm
04:32 AM 54.7°F12.6°C 45.5°F7.5°C 71% 0.9 mph E1.4 kmh E 2.0 mph3.2 kmh 29.89 in1012.2 mb 0.00 in0.0 mm 0.00 in0.0 mm 0.00 in0.0 mm
04:42 AM 54.1°F12.3°C 45.3°F7.4°C 72% 0.9 mph ENE1.4 kmh ENE 2.0 mph3.2 kmh 29.90 in1012.5 mb 0.00 in0.0 mm 0.00 in0.0 mm 0.00 in0.0 mm
04:52 AM 54.0°F12.2°C 44.8°F7.1°C 71% 0.9 mph E1.4 kmh E 2.0 mph3.2 kmh 29.90 in1012.5 mb 0.00 in0.0 mm 0.00 in0.0 mm 0.00 in0.0 mm
05:02 AM 54.0°F12.2°C 45.1°F7.3°C 72% 0.9 mph SE1.4 kmh SE 3.0 mph4.8 kmh 29.90 in1012.5 mb 0.00 in0.0 mm 0.00 in0.0 mm 0.00 in0.0 mm
05:12 AM 53.4°F11.9°C 45.0°F7.2°C 73% Calm Calm 2.0 mph3.2 kmh 29.90 in1012.5 mb 0.00 in0.0 mm 0.00 in0.0 mm 0.00 in0.0 mm
05:22 AM 53.2°F11.8°C 44.8°F7.1°C 73% Calm Calm 2.0 mph3.2 kmh 29.90 in1012.5 mb 0.00 in0.0 mm 0.00 in0.0 mm 0.00 in0.0 mm
05:32 AM 53.2°F11.8°C 44.4°F6.9°C 72% 2.0 mph E3.2 kmh E 5.0 mph8.0 kmh 29.90 in1012.5 mb 0.00 in0.0 mm 0.00 in0.0 mm 0.00 in0.0 mm
05:42 AM 53.1°F11.7°C 44.6°F7.0°C 73% 0.9 mph SE1.4 kmh SE 2.9 mph4.7 kmh 29.90 in1012.5 mb 0.00 in0.0 mm 0.00 in0.0 mm 0.00 in0.0 mm
05:52 AM 52.7°F11.5°C 44.6°F7.0°C 74% 0.9 mph ESE1.4 kmh ESE 2.0 mph3.2 kmh 29.90 in1012.5 mb 0.00 in0.0 mm 0.00 in0.0 mm 0.00 in0.0 mm
06:02 AM 52.2°F11.2°C 44.4°F6.9°C 75% Calm Calm 2.0 mph3.2 kmh 29.91 in1012.9 mb 0.00 in0.0 mm 0.00 in0.0 mm 0.00 in0.0 mm
06:12 AM 51.6°F10.9°C 43.9°F6.6°C 75% Calm Calm -- 29.91 in1012.9 mb 0.00 in0.0 mm 0.00 in0.0 mm 0.00 in0.0 mm
06:22 AM 51.3°F10.7°C 43.9°F6.6°C 76% Calm Calm -- 29.91 in1012.9 mb 0.00 in0.0 mm 0.00 in0.0 mm 0.00 in0.0 mm
06:32 AM 51.3°F10.7°C 43.9°F6.6°C 76% Calm Calm -- 29.91 in1012.9 mb 0.00 in0.0 mm 0.00 in0.0 mm 0.00 in0.0 mm
06:42 AM 51.1°F10.6°C 44.1°F6.7°C 77% Calm Calm 2.0 mph3.2 kmh 29.91 in1012.9 mb 0.00 in0.0 mm 0.00 in0.0 mm 0.00 in0.0 mm
06:52 AM 50.7°F10.4°C 44.1°F6.7°C 78% 0.9 mph SE1.4 kmh SE 2.0 mph3.2 kmh 29.91 in1012.9 mb 0.00 in0.0 mm 0.00 in0.0 mm 0.00 in0.0 mm
07:02 AM 50.7°F10.4°C 44.4°F6.9°C 79% Calm Calm 2.0 mph3.2 kmh 29.92 in1013.2 mb 0.00 in0.0 mm 0.00 in0.0 mm 0.00 in0.0 mm
07:12 AM 51.4°F10.8°C 43.7°F6.5°C 75% 0.9 mph E1.4 kmh E 3.0 mph4.8 kmh 29.92 in1013.2 mb 0.00 in0.0 mm 0.00 in0.0 mm 0.00 in0.0 mm
07:22 AM 52.2°F11.2°C 43.7°F6.5°C 73% 0.9 mph ENE1.4 kmh ENE 4.0 mph6.4 kmh 29.92 in1013.2 mb 0.00 in0.0 mm 0.00 in0.0 mm 0.00 in0.0 mm
07:32 AM 52.9°F11.6°C 44.1°F6.7°C 72% 0.9 mph E1.4 kmh E 4.0 mph6.4 kmh 29.93 in1013.5 mb 0.00 in0.0 mm 0.00 in0.0 mm 0.00 in0.0 mm
07:42 AM 53.8°F12.1°C 44.6°F7.0°C 71% 0.9 mph ENE1.4 kmh ENE 2.0 mph3.2 kmh 29.93 in1013.5 mb 0.00 in0.0 mm 0.00 in0.0 mm 0.00 in0.0 mm
07:52 AM 55.0°F12.8°C 44.6°F7.0°C 68% 0.9 mph E1.4 kmh E 4.0 mph6.4 kmh 29.93 in1013.5 mb 0.00 in0.0 mm 0.00 in0.0 mm 0.00 in0.0 mm
08:02 AM 56.1°F13.4°C 45.0°F7.2°C 66% 2.0 mph E3.2 kmh E 6.0 mph9.7 kmh 29.93 in1013.5 mb 0.00 in0.0 mm 0.00 in0.0 mm 0.00 in0.0 mm
08:12 AM 57.0°F13.9°C 45.3°F7.4°C 65% 2.0 mph NE3.2 kmh NE 6.0 mph9.7 kmh 29.93 in1013.5 mb 0.00 in0.0 mm 0.00 in0.0 mm 0.00 in0.0 mm
08:22 AM 58.3°F14.6°C 46.2°F7.9°C 64% 2.9 mph NE4.7 kmh NE 7.0 mph11.3 kmh 29.93 in1013.5 mb 0.00 in0.0 mm 0.00 in0.0 mm 0.00 in0.0 mm
08:32 AM 59.4°F15.2°C 46.4°F8.0°C 62% 4.0 mph NE6.4 kmh NE 10.1 mph16.3 kmh 29.92 in1013.2 mb 0.00 in0.0 mm 0.00 in0.0 mm 0.00 in0.0 mm
08:42 AM 60.6°F15.9°C 46.6°F8.1°C 60% 4.0 mph ENE6.4 kmh ENE 6.9 mph11.1 kmh 29.93 in1013.5 mb 0.00 in0.0 mm 0.00 in0.0 mm 0.00 in0.0 mm
08:52 AM 61.9°F16.6°C 46.9°F8.3°C 58% 4.0 mph NE6.4 kmh NE 8.1 mph13.0 kmh 29.93 in1013.5 mb 0.00 in0.0 mm 0.00 in0.0 mm 0.00 in0.0 mm
09:02 AM 63.0°F17.2°C 47.5°F8.6°C 57% 2.9 mph NE4.7 kmh NE 6.9 mph11.1 kmh 29.93 in1013.5 mb 0.00 in0.0 mm 0.00 in0.0 mm 0.00 in0.0 mm
09:12 AM 63.7°F17.6°C 47.7°F8.7°C 56% 2.9 mph ENE4.7 kmh ENE 6.9 mph11.1 kmh 29.93 in1013.5 mb 0.00 in0.0 mm 0.00 in0.0 mm 0.00 in0.0 mm
09:22 AM 64.9°F18.3°C 46.9°F8.3°C 52% 4.0 mph NE6.4 kmh NE 8.1 mph13.0 kmh 29.92 in1013.2 mb 0.00 in0.0 mm 0.00 in0.0 mm 0.00 in0.0 mm
09:32 AM 65.8°F18.8°C 47.7°F8.7°C 52% 2.9 mph ENE4.7 kmh ENE 6.9 mph11.1 kmh 29.93 in1013.5 mb 0.00 in0.0 mm 0.00 in0.0 mm 0.00 in0.0 mm
09:42 AM 67.1°F19.5°C 47.8°F8.8°C 50% 2.0 mph NE3.2 kmh NE 4.0 mph6.4 kmh 29.93 in1013.5 mb 0.00 in0.0 mm 0.00 in0.0 mm 0.00 in0.0 mm
09:52 AM 68.4°F20.2°C 47.3°F8.5°C 47% 2.0 mph NE3.2 kmh NE 4.9 mph7.9 kmh 29.93 in1013.5 mb 0.00 in0.0 mm 0.00 in0.0 mm 0.00 in0.0 mm
10:02 AM 69.6°F20.9°C 47.8°F8.8°C 46% 2.0 mph E3.2 kmh E 5.0 mph8.0 kmh 29.92 in1013.2 mb 0.00 in0.0 mm 0.00 in0.0 mm 0.00 in0.0 mm
10:12 AM 70.9°F21.6°C 47.3°F8.5°C 43% 2.9 mph E4.7 kmh E 6.0 mph9.7 kmh 29.93 in1013.5 mb 0.00 in0.0 mm 0.00 in0.0 mm 0.00 in0.0 mm
10:22 AM 72.0°F22.2°C 46.9°F8.3°C 41% 2.0 mph NE3.2 kmh NE 4.9 mph7.9 kmh 29.93 in1013.5 mb 0.00 in0.0 mm 0.00 in0.0 mm 0.00 in0.0 mm
10:32 AM 73.4°F23.0°C 48.2°F9.0°C 41% 0.9 mph E1.4 kmh E 2.9 mph4.7 kmh 29.92 in1013.2 mb 0.00 in0.0 mm 0.00 in0.0 mm 0.00 in0.0 mm
10:42 AM 74.7°F23.7°C 46.6°F8.1°C 37% Calm Calm 2.0 mph3.2 kmh 29.92 in1013.2 mb 0.00 in0.0 mm 0.00 in0.0 mm 0.00 in0.0 mm
10:52 AM 75.9°F24.4°C 43.9°F6.6°C 32% Calm Calm 2.0 mph3.2 kmh 29.92 in1013.2 mb 0.00 in0.0 mm 0.00 in0.0 mm 0.00 in0.0 mm
11:02 AM 76.8°F24.9°C 43.9°F6.6°C 31% Calm Calm 0.9 mph1.4 kmh 29.91 in1012.9 mb 0.00 in0.0 mm 0.00 in0.0 mm 0.00 in0.0 mm
11:12 AM 78.1°F25.6°C 43.2°F6.2°C 29% 0.9 mph N1.4 kmh N 4.0 mph6.4 kmh 29.91 in1012.9 mb 0.00 in0.0 mm 0.00 in0.0 mm 0.00 in0.0 mm
11:22 AM 78.8°F26.0°C 43.9°F6.6°C 29% 0.9 mph W1.4 kmh W 4.0 mph6.4 kmh 29.91 in1012.9 mb 0.00 in0.0 mm 0.00 in0.0 mm 0.00 in0.0 mm
11:33 AM 79.3°F26.3°C 44.2°F6.8°C 29% 0.9 mph WNW1.4 kmh WNW 6.0 mph9.7 kmh 29.90 in1012.5 mb 0.00 in0.0 mm 0.00 in0.0 mm 0.00 in0.0 mm
11:43 AM 79.2°F26.2°C 44.2°F6.8°C 29% 2.9 mph NW4.7 kmh NW 6.0 mph9.7 kmh 29.90 in1012.5 mb 0.00 in0.0 mm 0.00 in0.0 mm 0.00 in0.0 mm
11:53 AM 79.5°F26.4°C 46.2°F7.9°C 31% 4.0 mph WNW6.4 kmh WNW 8.1 mph13.0 kmh 29.89 in1012.2 mb 0.00 in0.0 mm 0.00 in0.0 mm 0.00 in0.0 mm
12:03 PM 79.5°F26.4°C 47.1°F8.4°C 32% 4.0 mph SSW6.4 kmh SSW 9.0 mph14.5 kmh 29.89 in1012.2 mb 0.00 in0.0 mm 0.00 in0.0 mm 0.00 in0.0 mm
12:13 PM 79.3°F26.3°C 45.1°F7.3°C 30% 4.0 mph WSW6.4 kmh WSW 9.0 mph14.5 kmh 29.88 in1011.9 mb 0.00 in0.0 mm 0.00 in0.0 mm 0.00 in0.0 mm
12:23 PM 79.9°F26.6°C 46.6°F8.1°C 31% 2.9 mph WSW4.7 kmh WSW 8.1 mph13.0 kmh 29.88 in1011.9 mb 0.00 in0.0 mm 0.00 in0.0 mm 0.00 in0.0 mm
12:33 PM 80.2°F26.8°C 46.9°F8.3°C 31% 4.0 mph WNW6.4 kmh WNW 8.9 mph14.3 kmh 29.88 in1011.9 mb 0.00 in0.0 mm 0.00 in0.0 mm 0.00 in0.0 mm
12:43 PM 80.4°F26.9°C 43.3°F6.3°C 27% 4.9 mph WSW7.9 kmh WSW 8.9 mph14.3 kmh 29.87 in1011.5 mb 0.00 in0.0 mm 0.00 in0.0 mm 0.00 in0.0 mm
12:53 PM 81.1°F27.3°C 41.9°F5.5°C 25% 4.9 mph W7.9 kmh W 10.1 mph16.3 kmh 29.87 in1011.5 mb 0.00 in0.0 mm 0.00 in0.0 mm 0.00 in0.0 mm
01:03 PM 81.1°F27.3°C 44.1°F6.7°C 27% 6.0 mph W9.7 kmh W 12.1 mph19.5 kmh 29.87 in1011.5 mb 0.00 in0.0 mm 0.00 in0.0 mm 0.00 in0.0 mm
01:13 PM 80.4°F26.9°C 45.3°F7.4°C 29% 6.9 mph WNW11.1 kmh WNW 15.0 mph24.1 kmh 29.86 in1011.2 mb 0.00 in0.0 mm 0.00 in0.0 mm 0.00 in0.0 mm
01:23 PM 80.8°F27.1°C 43.7°F6.5°C 27% 6.0 mph WSW9.7 kmh WSW 12.1 mph19.5 kmh 29.86 in1011.2 mb 0.00 in0.0 mm 0.00 in0.0 mm 0.00 in0.0 mm
01:33 PM 81.0°F27.2°C 40.8°F4.9°C 24% 4.0 mph W6.4 kmh W 10.1 mph16.3 kmh 29.86 in1011.2 mb 0.00 in0.0 mm 0.00 in0.0 mm 0.00 in0.0 mm
01:43 PM 80.2°F26.8°C 43.2°F6.2°C 27% 4.9 mph NNW7.9 kmh NNW 12.1 mph19.5 kmh 29.86 in1011.2 mb 0.00 in0.0 mm 0.00 in0.0 mm 0.00 in0.0 mm
01:53 PM 79.9°F26.6°C 43.0°F6.1°C 27% 4.9 mph WSW7.9 kmh WSW 10.1 mph16.3 kmh 29.86 in1011.2 mb 0.00 in0.0 mm 0.00 in0.0 mm 0.00 in0.0 mm
02:03 PM 79.0°F26.1°C 43.2°F6.2°C 28% 6.9 mph W11.1 kmh W 13.0 mph20.9 kmh 29.86 in1011.2 mb 0.00 in0.0 mm 0.00 in0.0 mm 0.00 in0.0 mm
02:13 PM 78.4°F25.8°C 43.5°F6.4°C 29% 8.1 mph WSW13.0 kmh WSW 13.0 mph20.9 kmh 29.86 in1011.2 mb 0.00 in0.0 mm 0.00 in0.0 mm 0.00 in0.0 mm
02:23 PM 78.1°F25.6°C 42.3°F5.7°C 28% 6.9 mph WNW11.1 kmh WNW 13.0 mph20.9 kmh 29.85 in1010.8 mb 0.00 in0.0 mm 0.00 in0.0 mm 0.00 in0.0 mm
02:33 PM 77.7°F25.4°C 43.9°F6.6°C 30% 8.1 mph WSW13.0 kmh WSW 12.1 mph19.5 kmh 29.85 in1010.8 mb 0.00 in0.0 mm 0.00 in0.0 mm 0.00 in0.0 mm
02:43 PM 78.1°F25.6°C 44.1°F6.7°C 30% 6.9 mph W11.1 kmh W 14.1 mph22.7 kmh 29.85 in1010.8 mb 0.00 in0.0 mm 0.00 in0.0 mm 0.00 in0.0 mm
02:53 PM 77.9°F25.5°C 44.8°F7.1°C 31% 6.0 mph W9.7 kmh W 12.1 mph19.5 kmh 29.85 in1010.8 mb 0.00 in0.0 mm 0.00 in0.0 mm 0.00 in0.0 mm
03:03 PM 77.4°F25.2°C 43.5°F6.4°C 30% 4.9 mph S7.9 kmh S 13.0 mph20.9 kmh 29.85 in1010.8 mb 0.00 in0.0 mm 0.00 in0.0 mm 0.00 in0.0 mm
03:13 PM 77.9°F25.5°C 43.2°F6.2°C 29% 4.9 mph W7.9 kmh W 11.0 mph17.7 kmh 29.85 in1010.8 mb 0.00 in0.0 mm 0.00 in0.0 mm 0.00 in0.0 mm
03:23 PM 77.4°F25.2°C 42.6°F5.9°C 29% 4.0 mph SW6.4 kmh SW 11.0 mph17.7 kmh 29.85 in1010.8 mb 0.00 in0.0 mm 0.00 in0.0 mm 0.00 in0.0 mm
03:33 PM 77.4°F25.2°C 43.5°F6.4°C 30% 4.0 mph SW6.4 kmh SW 8.9 mph14.3 kmh 29.84 in1010.5 mb 0.00 in0.0 mm 0.00 in0.0 mm 0.00 in0.0 mm
03:43 PM 78.3°F25.7°C 43.3°F6.3°C 29% 4.0 mph WSW6.4 kmh WSW 9.0 mph14.5 kmh 29.84 in1010.5 mb 0.00 in0.0 mm 0.00 in0.0 mm 0.00 in0.0 mm
03:53 PM 77.5°F25.3°C 41.9°F5.5°C 28% 4.9 mph SW7.9 kmh SW 11.0 mph17.7 kmh 29.84 in1010.5 mb 0.00 in0.0 mm 0.00 in0.0 mm 0.00 in0.0 mm
04:03 PM 77.2°F25.1°C 41.5°F5.3°C 28% 4.9 mph SW7.9 kmh SW 10.1 mph16.3 kmh 29.83 in1010.2 mb 0.00 in0.0 mm 0.00 in0.0 mm 0.00 in0.0 mm
04:13 PM 77.4°F25.2°C 43.5°F6.4°C 30% 4.9 mph WSW7.9 kmh WSW 11.0 mph17.7 kmh 29.83 in1010.2 mb 0.00 in0.0 mm 0.00 in0.0 mm 0.00 in0.0 mm
04:23 PM 77.4°F25.2°C 45.1°F7.3°C 32% 4.9 mph WSW7.9 kmh WSW 12.1 mph19.5 kmh 29.83 in1010.2 mb 0.00 in0.0 mm 0.00 in0.0 mm 0.00 in0.0 mm
04:33 PM 76.3°F24.6°C 44.2°F6.8°C 32% 6.9 mph WNW11.1 kmh WNW 12.1 mph19.5 kmh 29.84 in1010.5 mb 0.00 in0.0 mm 0.00 in0.0 mm 0.00 in0.0 mm
04:43 PM 75.6°F24.2°C 43.7°F6.5°C 32% 6.9 mph WNW11.1 kmh WNW 14.1 mph22.7 kmh 29.84 in1010.5 mb 0.00 in0.0 mm 0.00 in0.0 mm 0.00 in0.0 mm
04:53 PM 74.3°F23.5°C 44.1°F6.7°C 34% 8.1 mph W13.0 kmh W 13.0 mph20.9 kmh 29.84 in1010.5 mb 0.00 in0.0 mm 0.00 in0.0 mm 0.00 in0.0 mm
05:03 PM 73.8°F23.2°C 43.7°F6.5°C 34% 6.0 mph W9.7 kmh W 10.1 mph16.3 kmh 29.84 in1010.5 mb 0.00 in0.0 mm 0.00 in0.0 mm 0.00 in0.0 mm
05:13 PM 73.2°F22.9°C 43.2°F6.2°C 34% 4.9 mph W7.9 kmh W 8.9 mph14.3 kmh 29.84 in1010.5 mb 0.00 in0.0 mm 0.00 in0.0 mm 0.00 in0.0 mm
05:23 PM 73.2°F22.9°C 44.6°F7.0°C 36% 4.0 mph WSW6.4 kmh WSW 8.1 mph13.0 kmh 29.84 in1010.5 mb 0.00 in0.0 mm 0.00 in0.0 mm 0.00 in0.0 mm
05:33 PM 72.9°F22.7°C 46.4°F8.0°C 39% 2.9 mph W4.7 kmh W 7.0 mph11.3 kmh 29.84 in1010.5 mb 0.00 in0.0 mm 0.00 in0.0 mm 0.00 in0.0 mm
05:43 PM 72.3°F22.4°C 46.0°F7.8°C 39% 2.0 mph W3.2 kmh W 6.0 mph9.7 kmh 29.84 in1010.5 mb 0.00 in0.0 mm 0.00 in0.0 mm 0.00 in0.0 mm
05:53 PM 72.1°F22.3°C 47.1°F8.4°C 41% 2.9 mph WSW4.7 kmh WSW 4.9 mph7.9 kmh 29.84 in1010.5 mb 0.00 in0.0 mm 0.00 in0.0 mm 0.00 in0.0 mm
06:03 PM 72.1°F22.3°C 46.4°F8.0°C 40% 0.9 mph SSE1.4 kmh SSE 5.0 mph8.0 kmh 29.84 in1010.5 mb 0.00 in0.0 mm 0.00 in0.0 mm 0.00 in0.0 mm
06:13 PM 71.4°F21.9°C 45.1°F7.3°C 39% 2.0 mph SSW3.2 kmh SSW 4.9 mph7.9 kmh 29.85 in1010.8 mb 0.00 in0.0 mm 0.00 in0.0 mm 0.00 in0.0 mm
06:23 PM 71.2°F21.8°C 45.7°F7.6°C 40% 0.9 mph WSW1.4 kmh WSW 5.0 mph8.0 kmh 29.84 in1010.5 mb 0.00 in0.0 mm 0.00 in0.0 mm 0.00 in0.0 mm
06:33 PM 70.7°F21.5°C 47.7°F8.7°C 44% 0.9 mph WSW1.4 kmh WSW 2.0 mph3.2 kmh 29.84 in1010.5 mb 0.00 in0.0 mm 0.00 in0.0 mm 0.00 in0.0 mm
06:43 PM 70.3°F21.3°C 49.6°F9.8°C 48% 0.9 mph SW1.4 kmh SW 3.0 mph4.8 kmh 29.84 in1010.5 mb 0.00 in0.0 mm 0.00 in0.0 mm 0.00 in0.0 mm
06:53 PM 70.0°F21.1°C 49.5°F9.7°C 48% Calm Calm 2.0 mph3.2 kmh 29.84 in1010.5 mb 0.00 in0.0 mm 0.00 in0.0 mm 0.00 in0.0 mm
07:03 PM 70.0°F21.1°C 50.0°F10.0°C 49% Calm Calm 0.9 mph1.4 kmh 29.84 in1010.5 mb 0.00 in0.0 mm 0.00 in0.0 mm 0.00 in0.0 mm
07:13 PM 69.1°F20.6°C 49.1°F9.5°C 49% Calm Calm 0.9 mph1.4 kmh 29.84 in1010.5 mb 0.00 in0.0 mm 0.00 in0.0 mm 0.00 in0.0 mm
07:23 PM 68.2°F20.1°C 49.3°F9.6°C 51% Calm Calm 0.9 mph1.4 kmh 29.84 in1010.5 mb 0.00 in0.0 mm 0.00 in0.0 mm 0.00 in0.0 mm
07:33 PM 67.3°F19.6°C 50.0°F10.0°C 54% Calm Calm 0.9 mph1.4 kmh 29.84 in1010.5 mb 0.00 in0.0 mm 0.00 in0.0 mm 0.00 in0.0 mm
07:43 PM 66.0°F18.9°C 50.4°F10.2°C 57% Calm Calm -- 29.84 in1010.5 mb 0.00 in0.0 mm 0.00 in0.0 mm 0.00 in0.0 mm
07:53 PM 64.8°F18.2°C 50.2°F10.1°C 59% Calm Calm -- 29.84 in1010.5 mb 0.00 in0.0 mm 0.00 in0.0 mm 0.00 in0.0 mm
08:03 PM 64.0°F17.8°C 50.4°F10.2°C 61% Calm Calm -- 29.84 in1010.5 mb 0.00 in0.0 mm 0.00 in0.0 mm 0.00 in0.0 mm
08:13 PM 63.7°F17.6°C 50.9°F10.5°C 63% Calm Calm -- 29.85 in1010.8 mb 0.00 in0.0 mm 0.00 in0.0 mm 0.00 in0.0 mm
08:23 PM 63.0°F17.2°C 49.8°F9.9°C 62% Calm Calm -- 29.85 in1010.8 mb 0.00 in0.0 mm 0.00 in0.0 mm 0.00 in0.0 mm
08:33 PM 62.4°F16.9°C 49.6°F9.8°C 63% Calm Calm -- 29.85 in1010.8 mb 0.00 in0.0 mm 0.00 in0.0 mm 0.00 in0.0 mm
08:43 PM 61.9°F16.6°C 50.4°F10.2°C 66% Calm Calm -- 29.85 in1010.8 mb 0.00 in0.0 mm 0.00 in0.0 mm 0.00 in0.0 mm
08:53 PM 61.3°F16.3°C 50.4°F10.2°C 67% Calm Calm -- 29.85 in1010.8 mb 0.00 in0.0 mm 0.00 in0.0 mm 0.00 in0.0 mm
09:03 PM 61.0°F16.1°C 50.4°F10.2°C 68% Calm Calm -- 29.86 in1011.2 mb 0.00 in0.0 mm 0.00 in0.0 mm 0.00 in0.0 mm
09:13 PM 60.4°F15.8°C 50.2°F10.1°C 69% Calm Calm -- 29.86 in1011.2 mb 0.00 in0.0 mm 0.00 in0.0 mm 0.00 in0.0 mm
09:23 PM 60.1°F15.6°C 50.2°F10.1°C 70% Calm Calm -- 29.87 in1011.5 mb 0.00 in0.0 mm 0.00 in0.0 mm 0.00 in0.0 mm
09:33 PM 59.5°F15.3°C 50.2°F10.1°C 71% Calm Calm -- 29.87 in1011.5 mb 0.00 in0.0 mm 0.00 in0.0 mm 0.00 in0.0 mm
09:43 PM 59.0°F15.0°C 50.4°F10.2°C 73% Calm Calm -- 29.88 in1011.9 mb 0.00 in0.0 mm 0.00 in0.0 mm 0.00 in0.0 mm
09:53 PM 58.6°F14.8°C 50.7°F10.4°C 75% Calm Calm -- 29.88 in1011.9 mb 0.00 in0.0 mm 0.00 in0.0 mm 0.00 in0.0 mm
10:03 PM 58.5°F14.7°C 50.5°F10.3°C 75% Calm Calm -- 29.88 in1011.9 mb 0.00 in0.0 mm 0.00 in0.0 mm 0.00 in0.0 mm
10:13 PM 58.3°F14.6°C 50.7°F10.4°C 76% Calm Calm -- 29.88 in1011.9 mb 0.00 in0.0 mm 0.00 in0.0 mm 0.00 in0.0 mm
10:23 PM 57.9°F14.4°C 50.7°F10.4°C 77% Calm Calm -- 29.88 in1011.9 mb 0.00 in0.0 mm 0.00 in0.0 mm 0.00 in0.0 mm
10:33 PM 57.7°F14.3°C 50.5°F10.3°C 77% Calm Calm -- 29.88 in1011.9 mb 0.00 in0.0 mm 0.00 in0.0 mm 0.00 in0.0 mm
10:43 PM 57.4°F14.1°C 50.5°F10.3°C 78% Calm Calm -- 29.88 in1011.9 mb 0.00 in0.0 mm 0.00 in0.0 mm 0.00 in0.0 mm
10:53 PM 56.8°F13.8°C 50.7°F10.4°C 80% Calm Calm -- 29.88 in1011.9 mb 0.00 in0.0 mm 0.00 in0.0 mm 0.00 in0.0 mm
11:03 PM 56.8°F13.8°C 50.7°F10.4°C 80% Calm Calm -- 29.88 in1011.9 mb 0.00 in0.0 mm 0.00 in0.0 mm 0.00 in0.0 mm
11:13 PM 56.3°F13.5°C 49.8°F9.9°C 79% Calm Calm -- 29.88 in1011.9 mb 0.00 in0.0 mm 0.00 in0.0 mm 0.00 in0.0 mm
11:23 PM 55.8°F13.2°C 48.9°F9.4°C 78% Calm Calm -- 29.88 in1011.9 mb 0.00 in0.0 mm 0.00 in0.0 mm 0.00 in0.0 mm
11:33 PM 55.2°F12.9°C 48.2°F9.0°C 77% Calm Calm -- 29.88 in1011.9 mb 0.00 in0.0 mm 0.00 in0.0 mm 0.00 in0.0 mm
11:43 PM 54.9°F12.7°C 47.5°F8.6°C 76% 0.9 mph NNE1.4 kmh NNE 2.9 mph4.7 kmh 29.88 in1011.9 mb 0.00 in0.0 mm 0.00 in0.0 mm 0.00 in0.0 mm
11:53 PM 54.3°F12.4°C 47.3°F8.5°C 77% Calm Calm 0.9 mph1.4 kmh 29.88 in1011.9 mb 0.00 in0.0 mm 0.00 in0.0 mm 0.00 in0.0 mm